createdAt,value
2022-10-06T00:01:06.827Z,11.18
2022-10-06T00:03:33.664Z,11.48
2022-10-06T00:06:01.999Z,10.48
2022-10-06T00:08:30.567Z,10.30
2022-10-06T00:10:57.734Z,10.77
2022-10-06T00:13:25.299Z,10.15
2022-10-06T00:15:52.457Z,10.48
2022-10-06T00:18:19.406Z,10.13
2022-10-06T00:20:53.811Z,10.50
2022-10-06T00:23:21.013Z,10.77
2022-10-06T00:25:47.668Z,10.50
2022-10-06T00:28:14.652Z,10.32
2022-10-06T00:30:41.447Z,10.10
2022-10-06T00:33:11.701Z,10.45
2022-10-06T00:35:41.136Z,10.25
2022-10-06T00:38:07.821Z,9.82
2022-10-06T00:40:34.425Z,9.98
2022-10-06T00:43:05.135Z,9.70
2022-10-06T00:45:42.489Z,10.35
2022-10-06T00:48:23.594Z,10.13
2022-10-06T00:50:56.566Z,9.50
2022-10-06T00:53:24.429Z,10.10
2022-10-06T00:55:51.278Z,9.23
2022-10-06T00:58:18.211Z,10.07
2022-10-06T01:00:45.678Z,9.70
2022-10-06T01:03:17.744Z,9.27
2022-10-06T01:05:48.465Z,9.63
2022-10-06T01:08:16.379Z,8.70
2022-10-06T01:10:43.500Z,9.30
2022-10-06T01:13:11.828Z,9.05
2022-10-06T01:16:15.762Z,9.32
2022-10-06T01:18:44.422Z,8.65
2022-10-06T01:21:31.612Z,9.63
2022-10-06T01:23:58.399Z,10.38
2022-10-06T01:26:26.553Z,9.63
2022-10-06T01:28:53.432Z,10.60
2022-10-06T01:31:20.588Z,9.73
2022-10-06T01:33:52.013Z,9.02
2022-10-06T01:36:18.722Z,9.45
2022-10-06T01:38:45.368Z,10.20
2022-10-06T01:41:12.019Z,9.07
2022-10-06T01:43:38.666Z,9.68
2022-10-06T01:46:05.512Z,9.95
2022-10-06T01:48:34.774Z,9.48
2022-10-06T01:51:01.527Z,9.75
2022-10-06T01:53:28.128Z,8.63
2022-10-06T01:55:59.350Z,9.30
2022-10-06T01:58:26.526Z,9.10
2022-10-06T02:00:54.096Z,9.55
2022-10-06T02:03:20.979Z,9.63
2022-10-06T02:05:47.894Z,8.55
2022-10-06T02:08:14.670Z,9.18
2022-10-06T02:10:41.280Z,8.90
2022-10-06T02:13:07.895Z,9.02
2022-10-06T02:15:34.656Z,9.57
2022-10-06T02:18:01.338Z,9.52
2022-10-06T02:20:27.990Z,9.18
2022-10-06T02:22:54.606Z,9.48
2022-10-06T02:25:21.239Z,9.25
2022-10-06T02:27:47.872Z,9.93
2022-10-06T02:30:14.588Z,9.27
2022-10-06T02:32:42.791Z,8.80
2022-10-06T02:35:12.770Z,9.85
2022-10-06T02:37:41.425Z,9.02
2022-10-06T02:40:09.013Z,9.95
2022-10-06T02:42:37.464Z,9.82
2022-10-06T02:45:07.571Z,10.25
2022-10-06T02:47:35.879Z,9.80
2022-10-06T02:50:05.470Z,9.80
2022-10-06T02:52:34.315Z,9.95
2022-10-06T02:55:03.040Z,10.27
2022-10-06T02:57:30.121Z,9.13
2022-10-06T02:59:56.847Z,10.43
2022-10-06T03:02:23.803Z,9.90
2022-10-06T03:04:50.529Z,9.38
2022-10-06T03:07:17.414Z,9.73
2022-10-06T03:09:44.042Z,8.88
2022-10-06T03:12:10.647Z,9.98
2022-10-06T03:14:37.295Z,9.93
2022-10-06T03:17:03.993Z,9.73
2022-10-06T03:19:30.678Z,9.73
2022-10-06T03:21:57.384Z,9.10
2022-10-06T03:24:24.067Z,9.35
2022-10-06T03:26:50.768Z,9.13
2022-10-06T03:29:17.481Z,9.27
2022-10-06T03:31:44.303Z,9.75
2022-10-06T03:34:11.077Z,9.38
2022-10-06T03:36:37.911Z,8.93
2022-10-06T03:39:05.679Z,8.45
2022-10-06T03:41:37.002Z,9.43
2022-10-06T03:44:04.090Z,8.80
2022-10-06T03:46:33.230Z,8.57
2022-10-06T03:49:01.298Z,9.15
2022-10-06T03:51:37.018Z,10.00
2022-10-06T03:54:03.996Z,9.48
2022-10-06T03:56:39.113Z,9.98
2022-10-06T03:59:08.261Z,9.32
2022-10-06T04:01:40.850Z,9.55
2022-10-06T04:04:08.279Z,9.18
2022-10-06T04:06:37.050Z,9.40
2022-10-06T04:09:10.295Z,9.20
2022-10-06T04:11:41.663Z,9.57
2022-10-06T04:14:10.933Z,9.10
2022-10-06T04:16:40.407Z,9.10
2022-10-06T04:19:10.238Z,9.55
2022-10-06T04:21:38.471Z,9.48
2022-10-06T04:24:07.156Z,9.68
2022-10-06T04:26:36.711Z,9.18
2022-10-06T04:29:03.960Z,9.48
2022-10-06T04:31:33.439Z,9.15
2022-10-06T04:34:01.481Z,9.50
2022-10-06T04:36:36.028Z,9.50
2022-10-06T04:39:07.910Z,9.30
2022-10-06T04:41:43.373Z,8.55
2022-10-06T04:44:10.508Z,9.95
2022-10-06T04:46:43.415Z,9.25
2022-10-06T04:49:16.224Z,10.07
2022-10-06T04:51:45.504Z,9.50
2022-10-06T04:54:12.276Z,10.80
2022-10-06T04:56:38.920Z,9.40
2022-10-06T04:59:05.624Z,9.15
2022-10-06T05:01:34.917Z,9.75
2022-10-06T05:04:02.923Z,9.45
2022-10-06T05:06:32.872Z,9.48
2022-10-06T05:09:02.258Z,9.75
2022-10-06T05:11:29.504Z,9.98
2022-10-06T05:13:57.379Z,10.07
2022-10-06T05:16:26.091Z,10.43
2022-10-06T05:18:52.867Z,10.27
2022-10-06T05:21:22.423Z,10.10
2022-10-06T05:23:49.158Z,9.00
2022-10-06T05:26:21.774Z,10.13
2022-10-06T05:31:19.752Z,9.68
2022-10-06T05:33:46.755Z,9.90
2022-10-06T05:36:14.985Z,9.55
2022-10-06T05:38:41.929Z,9.55
2022-10-06T05:41:15.830Z,9.73
2022-10-06T05:43:43.625Z,9.88
2022-10-06T05:46:23.819Z,9.75
2022-10-06T05:48:52.718Z,9.65
2022-10-06T05:51:20.974Z,9.23
2022-10-06T05:53:48.574Z,9.40
2022-10-06T05:56:19.753Z,9.10
2022-10-06T05:58:48.599Z,8.77
2022-10-06T06:01:20.610Z,9.30
2022-10-06T06:03:55.525Z,9.38
2022-10-06T06:06:24.568Z,9.48
2022-10-06T06:09:02.842Z,10.27
2022-10-06T06:11:31.574Z,10.05
2022-10-06T06:14:00.219Z,9.82
2022-10-06T06:16:28.726Z,10.07
2022-10-06T06:18:55.461Z,10.43
2022-10-06T06:21:22.183Z,10.73
2022-10-06T06:23:50.113Z,11.13
2022-10-06T06:26:19.407Z,10.57
2022-10-06T06:28:47.617Z,10.48
2022-10-06T06:31:20.080Z,10.57
2022-10-06T06:33:49.274Z,10.45
2022-10-06T06:36:20.383Z,10.07
2022-10-06T06:38:51.838Z,9.60
2022-10-06T06:41:30.347Z,9.70
2022-10-06T06:44:00.016Z,10.43
2022-10-06T06:46:32.158Z,10.75
2022-10-06T06:49:04.050Z,9.70
2022-10-06T06:51:33.145Z,10.00
2022-10-06T06:54:02.296Z,9.80
2022-10-06T06:56:34.912Z,10.07
2022-10-06T06:59:06.545Z,10.23
2022-10-06T07:01:40.622Z,10.30
2022-10-06T07:04:07.297Z,10.48
2022-10-06T07:06:37.940Z,9.30
2022-10-06T07:09:04.753Z,10.40
2022-10-06T07:11:33.925Z,10.15
2022-10-06T07:14:03.064Z,10.07
2022-10-06T07:16:49.621Z,9.93
2022-10-06T07:19:37.202Z,9.95
2022-10-06T07:22:30.730Z,10.60
2022-10-06T07:25:07.096Z,12.52
2022-10-06T07:27:33.796Z,10.98
2022-10-06T07:30:00.420Z,10.73
2022-10-06T07:32:30.739Z,10.77
2022-10-06T07:35:00.917Z,15.60
2022-10-06T07:37:28.910Z,12.35
2022-10-06T07:39:55.784Z,12.88
2022-10-06T07:42:22.449Z,13.88
2022-10-06T07:45:08.229Z,11.07
2022-10-06T07:47:38.101Z,13.20
2022-10-06T07:50:08.175Z,13.25
2022-10-06T07:52:39.012Z,12.27
2022-10-06T07:55:06.399Z,12.40
2022-10-06T07:57:34.780Z,11.60
2022-10-06T08:00:05.166Z,12.20
2022-10-06T08:02:34.829Z,14.57
2022-10-06T08:05:03.372Z,9.35
2022-10-06T08:07:30.023Z,9.90
2022-10-06T08:09:56.733Z,12.48
2022-10-06T08:12:37.718Z,16.73
2022-10-06T08:15:07.519Z,11.52
2022-10-06T08:17:38.528Z,11.05
2022-10-06T08:20:08.216Z,12.25
2022-10-06T08:22:36.198Z,10.45
2022-10-06T08:25:07.164Z,10.77
2022-10-06T08:27:35.227Z,10.75
2022-10-06T08:30:03.852Z,10.98
2022-10-06T08:32:31.942Z,10.45
2022-10-06T08:34:58.983Z,10.15
2022-10-06T08:37:27.446Z,10.55
2022-10-06T08:39:57.289Z,11.00
2022-10-06T08:42:53.090Z,17.13
2022-10-06T08:45:44.044Z,16.58
2022-10-06T08:48:27.240Z,11.32
2022-10-06T08:51:34.519Z,10.75
2022-10-06T08:54:15.015Z,11.13
2022-10-06T08:56:54.327Z,12.32
2022-10-06T08:59:21.663Z,14.48
2022-10-06T09:01:51.383Z,14.25
2022-10-06T09:04:30.725Z,10.60
2022-10-06T09:06:59.859Z,9.65
2022-10-06T09:09:35.477Z,11.50
2022-10-06T09:12:02.102Z,12.35
2022-10-06T09:14:54.661Z,11.93
2022-10-06T09:17:30.509Z,12.48
2022-10-06T09:20:03.264Z,11.73
2022-10-06T09:22:32.256Z,12.77
2022-10-06T09:25:17.146Z,13.63
2022-10-06T09:27:50.506Z,12.50
2022-10-06T09:30:17.806Z,12.60
2022-10-06T09:32:59.221Z,13.82
2022-10-06T09:35:28.898Z,13.82
2022-10-06T09:38:08.144Z,13.27
2022-10-06T09:40:38.567Z,17.55
2022-10-06T09:43:18.186Z,15.38
2022-10-06T09:45:44.823Z,16.83
2022-10-06T09:48:19.950Z,13.57
2022-10-06T09:51:15.187Z,16.52
2022-10-06T09:53:43.383Z,15.95
2022-10-06T09:56:18.866Z,13.50
2022-10-06T09:58:59.503Z,11.32
2022-10-06T10:01:31.635Z,13.80
2022-10-06T10:04:19.579Z,19.52
2022-10-06T10:06:47.113Z,15.18
2022-10-06T10:09:21.977Z,12.95
2022-10-06T10:12:26.095Z,14.05
2022-10-06T10:14:54.868Z,20.45
2022-10-06T10:17:32.740Z,16.50
2022-10-06T10:20:02.659Z,18.42
2022-10-06T10:22:41.996Z,15.13
2022-10-06T10:25:33.476Z,13.05
2022-10-06T10:30:45.229Z,14.50
2022-10-06T10:33:43.188Z,17.45
2022-10-06T10:36:18.439Z,14.15
2022-10-06T10:38:47.046Z,14.65
2022-10-06T10:41:22.135Z,13.52
2022-10-06T10:43:49.450Z,14.48
2022-10-06T10:46:57.579Z,15.98
2022-10-06T10:49:32.126Z,16.10
2022-10-06T10:52:16.188Z,18.98
2022-10-06T10:55:16.105Z,15.85
2022-10-06T10:57:43.989Z,17.33
2022-10-06T11:00:18.851Z,17.92
2022-10-06T11:02:45.550Z,21.38
2022-10-06T11:05:17.136Z,20.73
2022-10-06T11:07:58.890Z,22.88
2022-10-06T11:10:34.139Z,19.40
2022-10-06T11:13:33.772Z,18.60
2022-10-06T11:16:12.018Z,18.65
2022-10-06T11:19:00.304Z,17.75
2022-10-06T11:21:28.069Z,17.13
2022-10-06T11:24:15.518Z,16.00
2022-10-06T11:27:09.601Z,16.23
2022-10-06T11:30:13.459Z,16.67
2022-10-06T11:32:55.837Z,20.65
2022-10-06T11:35:26.863Z,17.65
2022-10-06T11:38:02.160Z,13.63
2022-10-06T11:40:47.585Z,14.68
2022-10-06T11:43:22.994Z,13.95
2022-10-06T11:46:15.996Z,14.82
2022-10-06T11:48:43.677Z,14.43
2022-10-06T11:51:26.052Z,15.25
2022-10-06T11:53:54.354Z,12.80
2022-10-06T11:56:20.937Z,14.18
2022-10-06T11:58:56.348Z,12.48
2022-10-06T12:01:34.883Z,13.18
2022-10-06T12:04:10.585Z,14.25
2022-10-06T12:06:44.434Z,13.18
2022-10-06T12:09:31.793Z,12.23
2022-10-06T12:12:07.206Z,12.20
2022-10-06T12:17:46.296Z,13.82
2022-10-06T12:20:46.742Z,16.85
2022-10-06T12:23:17.995Z,14.20
2022-10-06T12:25:52.084Z,12.80
2022-10-06T12:28:47.285Z,14.82
2022-10-06T12:31:33.150Z,12.68
2022-10-06T12:33:59.882Z,13.95
2022-10-06T12:36:31.992Z,18.52
2022-10-06T12:39:02.381Z,14.73
2022-10-06T12:42:01.002Z,13.88
2022-10-06T12:44:56.547Z,18.98
2022-10-06T12:47:34.628Z,14.77
2022-10-06T12:50:14.045Z,15.50
2022-10-06T12:53:05.667Z,14.27
2022-10-06T12:55:49.032Z,14.18
2022-10-06T12:58:26.281Z,15.25
2022-10-06T13:00:56.397Z,18.83
2022-10-06T13:03:24.966Z,18.45
2022-10-06T13:06:01.139Z,21.65
2022-10-06T13:08:30.357Z,17.77
2022-10-06T13:11:15.580Z,20.67
2022-10-06T13:13:57.242Z,20.88
2022-10-06T13:16:27.514Z,15.88
2022-10-06T13:18:57.495Z,15.75
2022-10-06T13:21:25.028Z,14.65
2022-10-06T13:23:52.324Z,14.10
2022-10-06T13:26:23.944Z,15.27
2022-10-06T13:28:56.032Z,17.35
2022-10-06T13:31:33.466Z,16.35
2022-10-06T13:34:06.426Z,22.90
2022-10-06T13:36:39.437Z,19.65
2022-10-06T13:39:11.864Z,15.88
2022-10-06T13:41:45.637Z,18.60
2022-10-06T13:44:12.252Z,21.98
2022-10-06T13:46:42.431Z,20.52
2022-10-06T13:49:37.338Z,20.83
2022-10-06T13:52:15.283Z,17.30
2022-10-06T13:54:52.388Z,16.05
2022-10-06T13:57:45.135Z,16.25
2022-10-06T14:00:14.584Z,17.88
2022-10-06T14:02:48.721Z,18.77
2022-10-06T14:05:21.694Z,18.27
2022-10-06T14:07:49.905Z,18.63
2022-10-06T14:10:30.194Z,18.65
2022-10-06T14:13:00.508Z,16.95
2022-10-06T14:18:42.758Z,14.40
2022-10-06T14:21:38.125Z,18.92
2022-10-06T14:24:20.047Z,19.55
2022-10-06T14:26:52.022Z,16.15
2022-10-06T14:32:10.122Z,19.45
2022-10-06T14:34:36.742Z,20.88
2022-10-06T14:37:03.527Z,18.00
2022-10-06T14:39:30.238Z,15.48
2022-10-06T14:41:56.906Z,17.35
2022-10-06T14:44:23.544Z,17.55
2022-10-06T14:46:50.660Z,15.85
2022-10-06T14:50:22.896Z,16.75
2022-10-06T14:52:49.530Z,18.90
2022-10-06T14:55:16.756Z,18.33
2022-10-06T14:57:43.414Z,18.80
2022-10-06T15:00:10.956Z,17.00
2022-10-06T15:02:37.683Z,17.02
2022-10-06T15:05:04.728Z,16.02
2022-10-06T15:07:49.805Z,14.88
2022-10-06T15:10:16.445Z,21.00
2022-10-06T15:12:50.768Z,19.73
2022-10-06T15:15:18.044Z,18.98
2022-10-06T15:17:53.663Z,17.90
2022-10-06T15:20:20.307Z,17.30
2022-10-06T15:22:46.926Z,19.75
2022-10-06T15:25:33.533Z,19.08
2022-10-06T15:31:24.028Z,18.67
2022-10-06T15:34:01.460Z,18.88
2022-10-06T15:36:30.301Z,19.70
2022-10-06T15:39:20.684Z,19.92
2022-10-06T15:41:48.547Z,21.35
2022-10-06T15:44:16.460Z,22.48
2022-10-06T15:46:46.061Z,21.13
2022-10-06T15:49:41.077Z,20.83
2022-10-06T15:52:11.001Z,20.50
2022-10-06T15:54:50.015Z,19.27
2022-10-06T15:57:20.902Z,18.67
2022-10-06T15:59:48.266Z,20.25
2022-10-06T16:02:17.393Z,19.05
2022-10-06T16:04:45.169Z,19.13
2022-10-06T16:07:23.581Z,19.42
2022-10-06T16:09:51.782Z,18.52
2022-10-06T16:12:21.315Z,17.83
2022-10-06T16:14:48.645Z,15.60
2022-10-06T16:17:16.176Z,16.33
2022-10-06T16:19:43.124Z,15.75
2022-10-06T16:22:13.133Z,15.80
2022-10-06T16:24:39.835Z,15.02
2022-10-06T16:27:06.721Z,15.13
2022-10-06T16:29:33.333Z,16.38
2022-10-06T16:31:59.992Z,15.63
2022-10-06T16:34:30.151Z,14.27
2022-10-06T16:36:56.939Z,14.75
2022-10-06T16:39:24.233Z,15.35
2022-10-06T16:41:51.358Z,15.30
2022-10-06T16:44:18.560Z,15.82
2022-10-06T16:46:45.677Z,15.00
2022-10-06T16:49:15.098Z,13.68
2022-10-06T16:52:10.264Z,16.40
2022-10-06T16:54:36.968Z,13.45
2022-10-06T16:57:09.409Z,13.20
2022-10-06T17:02:02.855Z,15.13
2022-10-06T17:04:29.592Z,14.43
2022-10-06T17:06:57.401Z,11.82
2022-10-06T17:09:32.359Z,11.85
2022-10-06T17:12:11.806Z,10.60
2022-10-06T17:14:46.074Z,13.90
2022-10-06T17:17:14.239Z,13.27
2022-10-06T17:19:41.024Z,10.73
2022-10-06T17:22:07.703Z,13.25
2022-10-06T17:24:34.369Z,11.85
2022-10-06T17:27:01.074Z,11.85
2022-10-06T17:29:28.602Z,13.63
2022-10-06T17:32:00.204Z,12.80
2022-10-06T17:34:32.427Z,12.95
2022-10-06T17:37:01.022Z,12.65
2022-10-06T17:39:27.679Z,11.18
2022-10-06T17:41:54.637Z,11.65
2022-10-06T17:44:25.691Z,10.55
2022-10-06T17:46:55.383Z,11.15
2022-10-06T17:49:23.727Z,8.95
2022-10-06T17:52:06.514Z,8.88
2022-10-06T17:54:35.930Z,11.80
2022-10-06T17:57:02.766Z,10.40
2022-10-06T21:06:34.085Z,16.23
2022-10-06T21:09:01.751Z,14.98
2022-10-06T21:11:28.627Z,17.10
2022-10-06T21:13:55.767Z,19.65
2022-10-06T21:16:34.537Z,22.13
2022-10-06T21:19:08.036Z,24.52
2022-10-06T21:21:36.551Z,24.10
2022-10-06T21:24:04.363Z,23.75
2022-10-06T21:26:31.268Z,24.52
2022-10-06T21:28:58.163Z,24.73
2022-10-06T21:31:26.955Z,25.30
2022-10-06T21:33:54.735Z,24.95
2022-10-06T21:36:24.433Z,25.55
2022-10-06T21:38:56.462Z,25.27
2022-10-06T21:41:26.525Z,25.00
2022-10-06T21:44:00.686Z,27.52
2022-10-06T21:46:31.704Z,24.63
2022-10-06T21:49:00.221Z,22.08
2022-10-06T21:51:30.538Z,23.77
2022-10-06T21:53:58.713Z,22.95
2022-10-06T21:56:32.243Z,22.42
2022-10-06T21:59:02.270Z,22.40
2022-10-06T22:01:31.347Z,22.08
2022-10-06T22:04:00.213Z,22.15
2022-10-06T22:06:28.896Z,22.67
2022-10-06T22:08:56.813Z,22.20
2022-10-06T22:11:27.780Z,21.33
2022-10-06T22:13:57.746Z,23.10
2022-10-06T22:16:27.481Z,21.67
2022-10-06T22:18:54.643Z,22.98
2022-10-06T22:21:24.724Z,22.90
2022-10-06T22:23:58.007Z,24.02
2022-10-06T22:26:25.702Z,22.20
2022-10-06T22:28:54.618Z,22.05
2022-10-06T22:31:25.804Z,22.02
2022-10-06T22:33:55.472Z,21.10
2022-10-06T22:36:22.597Z,22.23
2022-10-06T22:38:50.242Z,22.27
2022-10-06T22:41:17.598Z,24.40
2022-10-06T22:43:44.434Z,24.20
2022-10-06T22:46:12.227Z,25.15
2022-10-06T22:48:39.219Z,22.02
2022-10-06T22:51:06.408Z,21.63
2022-10-06T22:53:33.630Z,21.27
2022-10-06T22:56:01.850Z,22.02
2022-10-06T22:58:28.826Z,20.85
2022-10-06T23:00:55.973Z,22.00
2022-10-06T23:03:23.484Z,21.73
2022-10-06T23:05:58.216Z,22.42
2022-10-06T23:08:28.144Z,21.90
2022-10-06T23:11:05.471Z,20.95
2022-10-06T23:13:32.259Z,20.02
2022-10-06T23:16:07.963Z,21.42
2022-10-06T23:18:37.553Z,21.55
2022-10-06T23:21:10.103Z,21.42
2022-10-06T23:23:37.294Z,21.17
2022-10-06T23:26:09.640Z,20.63
2022-10-06T23:28:37.187Z,20.35
2022-10-06T23:31:06.287Z,20.23
2022-10-06T23:33:33.938Z,20.60
2022-10-06T23:36:03.670Z,19.65
2022-10-06T23:38:30.529Z,20.50
2022-10-06T23:40:57.370Z,19.95
2022-10-06T23:43:24.422Z,19.77
2022-10-06T23:45:51.385Z,20.00
2022-10-06T23:48:18.393Z,19.50
2022-10-06T23:50:55.673Z,20.25
2022-10-06T23:53:22.507Z,20.13
2022-10-06T23:55:49.168Z,19.50
2022-10-06T23:58:16.471Z,20.13
